Time;durP1;ratioP1;P1;durP2;ratioP2;P2;SDS_P1;SDS_P2;PMS_P1;PMS_P2;Temp;Humidity;BMP_temperature;BMP_pressure;BME280_temperature;BME280_humidity;BME280_pressure;Samples;Min_cycle;Max_cycle;Signal;HPM_P1;HPM_P2
2023/11/16 00:01:19;;;;;;;;;;;;;;;20.17;53.90;100824.34;4994514;28;6029;-70
2023/11/16 00:03:53;;;;;;;;;;;;;;;20.17;53.85;100827.22;5004343;28;2384;-70
2023/11/16 00:06:19;;;;;;;;;;;;;;;20.16;53.66;100819.97;5003352;28;2256;-70
2023/11/16 00:08:46;;;;;;;;;;;;;;;20.16;53.89;100814.97;5003481;28;2219;-70
2023/11/16 00:11:15;;;;;;;;;;;;;;;20.16;53.79;100817.09;5004899;28;2273;-70
2023/11/16 00:13:44;;;;;;;;;;;;;;;20.15;53.88;100815.63;5003935;28;2171;-70
2023/11/16 00:16:11;;;;;;;;;;;;;;;20.14;53.88;100811.28;5004420;28;2246;-70
2023/11/16 00:18:41;;;;;;;;;;;;;;;20.14;53.80;100814.88;5003220;28;2108;-70
2023/11/16 00:21:07;;;;;;;;;;;;;;;20.13;53.72;100813.38;5004222;28;2199;-70
2023/11/16 00:23:34;;;;;;;;;;;;;;;20.13;53.84;100812.66;5007939;28;2218;-70
2023/11/16 00:26:02;;;;;;;;;;;;;;;20.13;53.97;100812.66;5003026;28;2276;-70
2023/11/16 00:28:28;;;;;;;;;;;;;;;20.12;53.74;100811.19;5003813;28;2415;-70
2023/11/16 00:30:55;;;;;;;;;;;;;;;20.11;53.80;100809.69;5019447;28;6004;-70
2023/11/16 00:33:21;;;;;;;;;;;;;;;20.09;53.65;100796.69;5002430;28;2226;-70
2023/11/16 00:35:49;;;;;;;;;;;;;;;20.08;53.74;100806.69;5004494;28;2264;-70
2023/11/16 00:38:16;;;;;;;;;;;;;;;20.08;53.81;100800.22;5002147;28;2315;-69
2023/11/16 00:40:43;;;;;;;;;;;;;;;20.08;53.76;100805.97;5003686;28;2488;-70
2023/11/16 00:43:10;;;;;;;;;;;;;;;20.06;53.96;100792.22;5001788;28;2286;-70
2023/11/16 00:45:37;;;;;;;;;;;;;;;20.06;54.00;100797.97;5004879;28;2175;-70
2023/11/16 00:48:03;;;;;;;;;;;;;;;20.05;54.03;100796.50;5003522;28;2382;-69
2023/11/16 00:50:30;;;;;;;;;;;;;;;20.04;53.82;100797.91;5003820;28;2213;-70
2023/11/16 00:52:57;;;;;;;;;;;;;;;20.05;53.80;100801.53;5004507;28;2170;-70
2023/11/16 00:55:23;;;;;;;;;;;;;;;20.04;53.95;100795.03;5003517;28;2246;-70
2023/11/16 00:57:50;;;;;;;;;;;;;;;20.04;53.91;100795.03;5004176;28;2220;-70
2023/11/16 01:00:17;;;;;;;;;;;;;;;20.03;54.03;100787.78;5017456;28;6092;-69
2023/11/16 01:02:48;;;;;;;;;;;;;;;20.01;53.91;100799.19;5003652;28;2163;-70
2023/11/16 01:05:17;;;;;;;;;;;;;;;20.01;53.92;100790.56;5003155;28;2206;-70
2023/11/16 01:07:44;;;;;;;;;;;;;;;20.00;53.95;100789.09;5004352;28;2288;-70
2023/11/16 01:10:15;;;;;;;;;;;;;;;20.00;53.79;100785.47;5003659;28;2218;-70
2023/11/16 01:12:43;;;;;;;;;;;;;;;19.99;53.79;100787.59;5003780;28;2269;-70
2023/11/16 01:15:10;;;;;;;;;;;;;;;19.99;53.81;100790.47;5004205;28;2265;-70
2023/11/16 01:17:39;;;;;;;;;;;;;;;19.98;54.01;100786.13;5002546;28;2245;-70
2023/11/16 01:20:09;;;;;;;;;;;;;;;19.98;53.96;100786.13;5003049;28;2308;-71
2023/11/16 01:22:46;;;;;;;;;;;;;;;19.97;53.90;100787.50;5018380;28;2470;-70
2023/11/16 01:25:15;;;;;;;;;;;;;;;19.96;53.89;100788.16;5002550;28;2444;-69
2023/11/16 01:27:50;;;;;;;;;;;;;;;19.97;53.73;100784.63;5017942;28;2253;-70
2023/11/16 01:30:17;;;;;;;;;;;;;;;19.96;54.03;100783.16;5015087;28;5998;-69
2023/11/16 01:32:44;;;;;;;;;;;;;;;19.95;53.82;100775.94;4983389;28;2299;-70
2023/11/16 01:35:11;;;;;;;;;;;;;;;19.96;53.98;100782.41;4982976;28;2337;-70
2023/11/16 01:37:39;;;;;;;;;;;;;;;19.93;53.89;100772.97;4982821;28;2398;-70
2023/11/16 01:40:05;;;;;;;;;;;;;;;19.93;53.80;100778.72;4989436;28;2132;-70
2023/11/16 01:42:32;;;;;;;;;;;;;;;19.94;54.04;100773.69;4981929;28;2240;-70
2023/11/16 01:44:58;;;;;;;;;;;;;;;19.93;53.81;100777.94;4999179;28;2203;-70
2023/11/16 01:47:26;;;;;;;;;;;;;;;19.91;53.89;100775.72;4981804;28;2306;-70
2023/11/16 01:49:52;;;;;;;;;;;;;;;19.90;53.96;100759.13;4982072;28;2219;-70
2023/11/16 01:52:19;;;;;;;;;;;;;;;19.91;53.98;100775.00;4980974;28;2283;-69
2023/11/16 01:54:46;;;;;;;;;;;;;;;19.91;54.00;100761.38;4981513;28;2457;-70
2023/11/16 01:57:13;;;;;;;;;;;;;;;19.91;54.03;100772.84;4983056;28;2354;-69
2023/11/16 01:59:39;;;;;;;;;;;;;;;19.88;54.05;100760.53;4980847;28;2224;-69
2023/11/16 02:02:10;;;;;;;;;;;;;;;19.89;53.89;100755.53;4997946;28;6020;-69
2023/11/16 02:04:37;;;;;;;;;;;;;;;19.87;53.91;100764.78;5001373;28;2249;-70
2023/11/16 02:07:05;;;;;;;;;;;;;;;19.87;53.84;100755.41;5001438;28;2300;-69
2023/11/16 02:09:32;;;;;;;;;;;;;;;19.87;53.91;100755.41;5002384;28;2190;-69
2023/11/16 02:12:01;;;;;;;;;;;;;;;19.86;53.90;100757.56;5001229;28;2234;-69
2023/11/16 02:14:28;;;;;;;;;;;;;;;19.87;53.79;100764.03;5001085;28;2397;-69
2023/11/16 02:16:57;;;;;;;;;;;;;;;19.87;53.89;100755.41;5015743;28;2262;-69
2023/11/16 02:19:27;;;;;;;;;;;;;;;19.85;53.87;100750.31;5017252;28;2304;-70
2023/11/16 02:21:54;;;;;;;;;;;;;;;19.84;53.84;100756.72;5001559;28;2171;-70
2023/11/16 02:24:20;;;;;;;;;;;;;;;19.84;53.83;100757.47;5016550;28;2366;-70
2023/11/16 02:26:47;;;;;;;;;;;;;;;19.85;54.03;100761.06;4998189;28;2285;-70
2023/11/16 02:29:13;;;;;;;;;;;;;;;19.83;53.94;100758.84;4995563;28;2325;-70
2023/11/16 02:31:40;;;;;;;;;;;;;;;19.83;54.11;100755.22;4983741;28;6297;-69
2023/11/16 02:34:07;;;;;;;;;;;;;;;19.83;53.92;100763.84;4981470;28;2255;-70
2023/11/16 02:36:34;;;;;;;;;;;;;;;19.83;53.98;100755.22;4982890;28;2219;-69
2023/11/16 02:39:01;;;;;;;;;;;;;;;19.82;53.91;100750.88;4981460;28;2255;-69
2023/11/16 02:41:29;;;;;;;;;;;;;;;19.81;54.10;100743.63;4980685;28;2540;-69
2023/11/16 02:43:55;;;;;;;;;;;;;;;19.81;53.96;100749.38;4982038;28;2536;-70
2023/11/16 02:46:22;;;;;;;;;;;;;;;19.81;53.93;100743.63;4979835;28;2199;-69
2023/11/16 02:48:49;;;;;;;;;;;;;;;19.79;53.87;100743.53;4981034;28;2384;-69
2023/11/16 02:51:15;;;;;;;;;;;;;;;19.80;53.94;100739.28;4982613;28;2240;-70
2023/11/16 02:53:43;;;;;;;;;;;;;;;19.79;53.85;100729.94;4998598;28;2254;-69
2023/11/16 02:56:11;;;;;;;;;;;;;;;19.80;53.91;100739.28;4986787;28;2419;-70
2023/11/16 02:58:41;;;;;;;;;;;;;;;19.77;53.95;100737.69;4990071;28;2287;-70
2023/11/16 03:01:07;;;;;;;;;;;;;;;19.78;53.92;100727.69;4993907;28;6071;-70
2023/11/16 03:03:37;;;;;;;;;;;;;;;19.78;53.99;100731.31;5006225;28;2207;-69
2023/11/16 03:06:03;;;;;;;;;;;;;;;19.77;53.94;100738.47;5004715;28;2409;-70
2023/11/16 03:08:30;;;;;;;;;;;;;;;19.77;53.90;100734.81;5005173;28;2435;-70
2023/11/16 03:10:57;;;;;;;;;;;;;;;19.76;53.89;100733.34;5006432;28;2508;-70
2023/11/16 03:13:23;;;;;;;;;;;;;;;19.75;53.92;100732.59;5004903;28;2230;-70
2023/11/16 03:15:50;;;;;;;;;;;;;;;19.73;53.92;100732.50;5005336;28;2191;-70
2023/11/16 03:18:18;;;;;;;;;;;;;;;19.72;54.14;100724.53;5004559;28;2543;-70
2023/11/16 03:20:45;;;;;;;;;;;;;;;19.72;53.99;100725.28;5006218;28;2262;-70
2023/11/16 03:23:13;;;;;;;;;;;;;;;19.73;53.88;100721.03;5004792;28;2257;-70
2023/11/16 03:25:40;;;;;;;;;;;;;;;19.74;54.08;100727.50;5004293;28;2444;-70
2023/11/16 03:28:06;;;;;;;;;;;;;;;19.74;53.99;100727.50;5003973;28;2265;-70
2023/11/16 03:30:33;;;;;;;;;;;;;;;19.74;53.87;100716.00;5005117;28;6032;-69
2023/11/16 03:33:00;;;;;;;;;;;;;;;19.73;53.91;100720.28;5018770;28;2245;-70
2023/11/16 03:35:27;;;;;;;;;;;;;;;19.73;53.90;100721.03;5004630;28;2163;-70
2023/11/16 03:37:54;;;;;;;;;;;;;;;19.73;54.03;100708.78;5003674;28;2186;-70
2023/11/16 03:40:20;;;;;;;;;;;;;;;19.70;53.98;100710.06;5004209;28;2178;-70
2023/11/16 03:42:47;;;;;;;;;;;;;;;19.71;54.01;100705.81;5005205;28;2198;-70
2023/11/16 03:45:13;;;;;;;;;;;;;;;19.73;53.94;100714.53;5004929;28;2151;-70
2023/11/16 03:47:40;;;;;;;;;;;;;;;19.73;53.86;100712.41;5004541;28;2274;-70
2023/11/16 03:50:09;;;;;;;;;;;;;;;19.75;53.85;100717.50;5018302;28;2336;-70
2023/11/16 03:52:36;;;;;;;;;;;;;;;19.75;53.86;100700.28;5005376;28;2312;-70
2023/11/16 03:55:02;;;;;;;;;;;;;;;19.76;53.80;100713.97;5004608;28;2182;-70
2023/11/16 03:57:29;;;;;;;;;;;;;;;19.76;53.87;100708.22;5001444;28;2468;-70
2023/11/16 03:59:59;;;;;;;;;;;;;;;19.80;53.83;100704.81;5003215;28;2221;-70
2023/11/16 04:02:25;;;;;;;;;;;;;;;19.77;53.86;100708.97;5003976;28;6111;-72
2023/11/16 04:04:54;;;;;;;;;;;;;;;19.75;53.78;100700.28;5002930;28;2191;-70
2023/11/16 04:07:21;;;;;;;;;;;;;;;19.75;53.35;100701.00;5016986;28;2306;-69
2023/11/16 04:09:48;;;;;;;;;;;;;;;19.78;53.24;100699.69;5005586;28;2207;-70
2023/11/16 04:12:15;;;;;;;;;;;;;;;19.79;53.48;100695.47;5003566;28;2358;-69
2023/11/16 04:14:43;;;;;;;;;;;;;;;19.80;53.60;100696.94;5005016;28;2563;-69
2023/11/16 04:17:13;;;;;;;;;;;;;;;19.80;53.50;100701.94;5035243;28;2342;-70
2023/11/16 04:19:39;;;;;;;;;;;;;;;19.80;53.54;100694.06;5019607;28;2335;-72
2023/11/16 04:22:07;;;;;;;;;;;;;;;19.80;53.52;100696.19;5019316;28;2185;-71
2023/11/16 04:24:39;;;;;;;;;;;;;;;19.82;53.50;100699.16;5003096;28;2253;-70
2023/11/16 04:27:06;;;;;;;;;;;;;;;19.82;53.51;100690.53;5019731;28;2236;-70
2023/11/16 04:29:34;;;;;;;;;;;;;;;19.82;53.65;100688.41;5018866;28;2288;-70
2023/11/16 04:32:01;;;;;;;;;;;;;;;19.84;53.72;100693.50;5003034;28;6187;-70
2023/11/16 04:34:28;;;;;;;;;;;;;;;19.84;53.57;100688.50;5003629;28;2260;-69
2023/11/16 04:36:56;;;;;;;;;;;;;;;19.85;53.71;100683.50;5033686;28;2333;-69
2023/11/16 04:39:22;;;;;;;;;;;;;;;19.87;53.65;100689.31;5002453;28;2324;-70
2023/11/16 04:41:49;;;;;;;;;;;;;;;19.86;53.56;100676.38;5003274;28;2325;-69
2023/11/16 04:44:16;;;;;;;;;;;;;;;19.87;53.57;100686.47;5003614;28;2284;-70
2023/11/16 04:46:47;;;;;;;;;;;;;;;19.86;53.56;100682.84;5002412;28;2486;-69
2023/11/16 04:49:13;;;;;;;;;;;;;;;19.86;53.81;100682.84;5003911;28;2331;-69
2023/11/16 04:51:44;;;;;;;;;;;;;;;19.86;53.81;100676.38;5003266;28;2213;-70
2023/11/16 04:54:10;;;;;;;;;;;;;;;19.86;53.66;100676.38;5035435;28;2275;-70
2023/11/16 04:56:37;;;;;;;;;;;;;;;19.86;53.57;100674.22;5002522;28;2273;-69
2023/11/16 04:59:04;;;;;;;;;;;;;;;19.86;53.59;100670.63;5002552;28;2249;-69
2023/11/16 05:01:31;;;;;;;;;;;;;;;19.87;53.66;100669.94;5001350;28;6319;-70
2023/11/16 05:04:02;;;;;;;;;;;;;;;19.88;53.58;100662.06;5002337;28;2265;-70
2023/11/16 05:06:29;;;;;;;;;;;;;;;19.88;53.53;100651.34;5001370;28;2597;-70
2023/11/16 05:08:55;;;;;;;;;;;;;;;19.89;53.57;100646.31;5002136;28;2439;-70
2023/11/16 05:11:23;;;;;;;;;;;;;;;19.89;53.57;100637.69;5001600;28;2406;-70
2023/11/16 05:13:50;;;;;;;;;;;;;;;19.89;53.67;100631.94;5002517;28;2255;-71
2023/11/16 05:16:17;;;;;;;;;;;;;;;19.90;53.75;100630.53;5000605;28;2307;-70
2023/11/16 05:18:44;;;;;;;;;;;;;;;19.89;53.64;100629.06;5000920;28;2349;-70
2023/11/16 05:21:11;;;;;;;;;;;;;;;19.90;53.79;100630.53;5002437;28;2272;-70
2023/11/16 05:23:41;;;;;;;;;;;;;;;19.90;53.64;100632.69;5003028;28;2209;-70
2023/11/16 05:26:08;;;;;;;;;;;;;;;19.89;53.67;100629.06;5003291;28;2253;-70
2023/11/16 05:28:34;;;;;;;;;;;;;;;19.90;53.63;100636.28;5001268;28;2320;-70
2023/11/16 05:31:04;;;;;;;;;;;;;;;19.88;53.66;100636.19;5001290;28;6301;-70
2023/11/16 05:33:34;;;;;;;;;;;;;;;19.90;53.60;100630.53;5001008;28;2651;-70
2023/11/16 05:36:01;;;;;;;;;;;;;;;19.90;53.71;100632.69;5002248;28;2225;-70
2023/11/16 05:38:27;;;;;;;;;;;;;;;19.91;53.63;100628.44;5000142;28;2268;-70
2023/11/16 05:40:54;;;;;;;;;;;;;;;19.91;53.83;100620.56;5002253;28;2542;-71
2023/11/16 05:43:20;;;;;;;;;;;;;;;19.92;53.61;100622.03;5000597;28;2199;-70
2023/11/16 05:45:47;;;;;;;;;;;;;;;19.90;53.82;100624.81;5017628;28;2348;-72
2023/11/16 05:48:15;;;;;;;;;;;;;;;19.90;53.79;100621.94;5002554;28;2248;-71
2023/11/16 05:50:42;;;;;;;;;;;;;;;19.94;53.88;100625.00;5003849;28;2309;-71
2023/11/16 05:53:09;;;;;;;;;;;;;;;19.93;53.77;100617.78;5003198;28;2201;-71
2023/11/16 05:55:36;;;;;;;;;;;;;;;19.93;53.72;100623.53;5003421;28;2087;-71
2023/11/16 05:58:05;;;;;;;;;;;;;;;19.93;53.93;100619.88;5001780;28;2209;-71
2023/11/16 06:00:33;;;;;;;;;;;;;;;19.92;53.81;100616.28;5002318;28;6207;-72
2023/11/16 06:03:00;;;;;;;;;;;;;;;19.92;53.74;100612.66;5002333;28;2371;-71
2023/11/16 06:05:27;;;;;;;;;;;;;;;19.93;53.94;100620.66;4999455;28;2262;-70
2023/11/16 06:07:54;;;;;;;;;;;;;;;19.92;53.88;100616.28;5001127;28;2327;-71
2023/11/16 06:10:21;;;;;;;;;;;;;;;19.94;53.74;100613.50;5001600;28;2244;-71
2023/11/16 06:12:50;;;;;;;;;;;;;;;19.93;53.83;100617.78;5013664;28;2290;-73
2023/11/16 06:15:28;;;;;;;;;;;;;;;19.95;53.74;100609.25;5003471;28;2185;-71
2023/11/16 06:17:58;;;;;;;;;;;;;;;19.95;53.92;100603.50;5001666;28;2463;-71
2023/11/16 06:20:25;;;;;;;;;;;;;;;19.94;53.82;100602.00;4999820;28;2276;-72
2023/11/16 06:22:51;;;;;;;;;;;;;;;19.95;53.84;100606.38;4998749;28;2269;-71
2023/11/16 06:25:17;;;;;;;;;;;;;;;19.95;53.83;100606.38;5000853;28;2230;-71
2023/11/16 06:27:45;;;;;;;;;;;;;;;19.95;54.15;100599.84;5000270;28;2343;-71
2023/11/16 06:30:12;;;;;;;;;;;;;;;19.93;54.09;100594.03;5015701;28;6386;-72
2023/11/16 06:32:40;;;;;;;;;;;;;;;19.92;54.06;100593.28;5001096;28;2370;-70
2023/11/16 06:35:06;;;;;;;;;;;;;;;19.90;53.89;100601.81;5001062;28;2364;-69
2023/11/16 06:37:33;;;;;;;;;;;;;;;19.86;54.15;100618.91;5000062;28;2287;-69
2023/11/16 06:40:00;;;;;;;;;;;;;;;19.84;54.17;100605.16;4998923;28;3473;-71
2023/11/16 06:42:27;;;;;;;;;;;;;;;19.83;53.95;100602.94;5000576;28;2582;-70
2023/11/16 06:44:53;;;;;;;;;;;;;;;19.81;53.54;100594.22;5001832;28;2569;-71
2023/11/16 06:47:20;;;;;;;;;;;;;;;19.75;53.43;100596.84;5000485;28;2615;-72
2023/11/16 06:49:48;;;;;;;;;;;;;;;19.77;52.94;100605.53;4999650;28;2203;-73
2023/11/16 06:52:15;;;;;;;;;;;;;;;19.83;52.65;100597.19;5001147;28;2271;-71
2023/11/16 06:54:42;;;;;;;;;;;;;;;19.87;53.09;100585.88;5027113;28;2359;-70
2023/11/16 06:57:09;;;;;;;;;;;;;;;19.90;53.23;100584.56;4999231;28;2175;-70
2023/11/16 06:59:35;;;;;;;;;;;;;;;19.92;53.12;100586.81;5001785;28;2320;-71
2023/11/16 07:02:04;;;;;;;;;;;;;;;19.92;53.15;100587.53;4982243;28;6183;-70
2023/11/16 07:04:30;;;;;;;;;;;;;;;19.94;53.30;100589.78;4973959;28;2294;-69
2023/11/16 07:06:58;;;;;;;;;;;;;;;19.97;54.10;100597.06;4979893;28;2254;-68
2023/11/16 07:09:26;;;;;;;;;;;;;;;20.03;54.25;100591.59;4980181;28;2206;-71
2023/11/16 07:11:53;;;;;;;;;;;;;;;20.06;54.16;100596.78;4978356;28;2203;-75
2023/11/16 07:14:19;;;;;;;;;;;;;;;20.03;54.49;100600.97;4980529;28;2211;-73
2023/11/16 07:16:47;;;;;;;;;;;;;;;19.99;54.41;100595.03;4982897;28;2167;-73
2023/11/16 07:19:15;;;;;;;;;;;;;;;19.98;54.55;100587.81;4980053;28;2239;-74
2023/11/16 07:21:42;;;;;;;;;;;;;;;19.94;54.57;100599.13;4980462;28;2146;-73
2023/11/16 07:24:10;;;;;;;;;;;;;;;19.76;53.95;100604.06;4981328;28;2145;-74
2023/11/16 07:26:37;;;;;;;;;;;;;;;19.57;52.93;100608.94;5009488;28;2547;-72
2023/11/16 07:29:04;;;;;;;;;;;;;;;19.38;51.57;100595.16;4982918;28;2201;-73
2023/11/16 07:31:30;;;;;;;;;;;;;;;19.19;51.74;100597.16;4992832;28;6210;-73
2023/11/16 07:33:58;;;;;;;;;;;;;;;19.16;50.58;100592.72;4999183;28;2199;-73
2023/11/16 07:36:27;;;;;;;;;;;;;;;19.25;50.67;100605.31;5000021;28;2253;-72
2023/11/16 07:38:54;;;;;;;;;;;;;;;19.41;49.96;100605.34;5000336;28;2162;-82
2023/11/16 07:41:20;;;;;;;;;;;;;;;19.15;52.21;100601.97;5008811;28;2215;-75
2023/11/16 07:43:47;;;;;;;;;;;;;;;19.31;53.07;100597.00;5006442;28;2217;-74
2023/11/16 07:46:13;;;;;;;;;;;;;;;19.55;50.82;100597.38;5020528;28;2223;-73
2023/11/16 07:48:40;;;;;;;;;;;;;;;19.55;50.20;100608.13;5001852;28;2342;-72
2023/11/16 07:51:08;;;;;;;;;;;;;;;19.63;49.20;100611.34;5004663;28;2252;-73
2023/11/16 07:53:36;;;;;;;;;;;;;;;19.11;49.22;100605.41;4998091;28;2827;-72
2023/11/16 07:56:08;;;;;;;;;;;;;;;19.33;48.88;100608.56;5000058;28;4463;-72
2023/11/16 07:58:35;;;;;;;;;;;;;;;19.65;49.03;100612.22;5006026;28;2301;-73
2023/11/16 08:01:04;;;;;;;;;;;;;;;19.99;48.57;100614.41;5005574;28;6010;-72
2023/11/16 08:03:43;;;;;;;;;;;;;;;20.21;48.74;100614.66;5007224;28;2256;-73
2023/11/16 08:06:12;;;;;;;;;;;;;;;20.30;48.88;100616.47;5006772;28;1747;-72
2023/11/16 08:08:41;;;;;;;;;;;;;;;20.39;48.77;100614.69;5016755;28;4284;-73
2023/11/16 08:11:11;;;;;;;;;;;;;;;20.47;49.01;100615.75;5006991;28;2245;-75
2023/11/16 08:13:41;;;;;;;;;;;;;;;20.53;49.30;100615.28;4980545;28;3286;-74
2023/11/16 08:16:12;;;;;;;;;;;;;;;20.67;48.86;100612.28;5003652;28;3244;-77
2023/11/16 08:18:41;;;;;;;;;;;;;;;20.76;49.01;100622.72;5006725;28;2437;-78
2023/11/16 08:21:08;;;;;;;;;;;;;;;20.71;48.71;100609.59;5008665;28;1849;-82
2023/11/16 08:23:38;;;;;;;;;;;;;;;20.46;49.33;100614.28;5035961;28;2434;-73
2023/11/16 08:26:18;;;;;;;;;;;;;;;20.32;50.38;100613.69;5007326;28;2351;-73
2023/11/16 08:28:45;;;;;;;;;;;;;;;20.19;50.34;100614.56;5005094;28;2753;-72
2023/11/16 08:31:12;;;;;;;;;;;;;;;20.08;50.40;100616.97;5002775;28;6501;-72
2023/11/16 08:33:40;;;;;;;;;;;;;;;20.13;50.58;100612.16;5025071;28;2276;-72
2023/11/16 08:36:11;;;;;;;;;;;;;;;20.12;50.74;100615.69;5004553;28;2600;-71
2023/11/16 08:38:42;;;;;;;;;;;;;;;20.11;50.85;100619.94;5000819;28;2354;-70
2023/11/16 08:41:15;;;;;;;;;;;;;;;20.09;51.13;100617.75;5003416;28;2260;-71
2023/11/16 08:43:42;;;;;;;;;;;;;;;20.12;51.22;100624.31;5009190;28;2080;-72
2023/11/16 08:46:10;;;;;;;;;;;;;;;20.09;51.32;100618.47;5005181;28;2123;-73
2023/11/16 08:48:37;;;;;;;;;;;;;;;20.11;51.34;100625.69;5033467;28;2182;-72
2023/11/16 08:51:05;;;;;;;;;;;;;;;20.09;51.25;100635.72;5008760;28;2107;-71
2023/11/16 08:53:39;;;;;;;;;;;;;;;19.62;50.00;100630.00;5002170;28;2151;-73
2023/11/16 08:56:07;;;;;;;;;;;;;;;19.15;49.03;100630.66;5004033;28;2340;-73
2023/11/16 08:58:37;;;;;;;;;;;;;;;19.02;50.03;100629.34;5001087;28;2151;-70
2023/11/16 09:01:05;;;;;;;;;;;;;;;19.60;49.33;100639.25;5003140;28;6180;-77
2023/11/16 09:03:36;;;;;;;;;;;;;;;19.92;49.51;100639.25;5002282;28;2318;-78
2023/11/16 09:06:06;;;;;;;;;;;;;;;20.01;49.72;100637.50;5007546;28;2154;-80
2023/11/16 09:08:34;;;;;;;;;;;;;;;20.42;50.08;100630.63;5003221;28;2290;-78
2023/11/16 09:11:01;;;;;;;;;;;;;;;20.43;49.70;100635.75;5002057;28;2347;-79
2023/11/16 09:13:28;;;;;;;;;;;;;;;20.33;50.00;100635.28;4997380;28;6279;-78
2023/11/16 09:15:55;;;;;;;;;;;;;;;19.59;49.39;100637.78;5006666;28;1707;-71
2023/11/16 09:18:25;;;;;;;;;;;;;;;19.76;49.36;100650.75;5007350;28;2135;-78
2023/11/16 09:20:51;;;;;;;;;;;;;;;20.36;49.92;100636.84;5002996;28;1616;-85
2023/11/16 09:23:25;;;;;;;;;;;;;;;20.22;49.88;100636.25;5012227;28;2433;-73
2023/11/16 09:25:57;;;;;;;;;;;;;;;20.30;50.21;100628.72;4997306;28;4371;-73
2023/11/16 09:28:28;;;;;;;;;;;;;;;20.50;49.85;100623.09;5000985;28;2519;-72
2023/11/16 09:30:57;;;;;;;;;;;;;;;20.53;49.89;100629.66;5001211;28;6163;-74
2023/11/16 09:33:23;;;;;;;;;;;;;;;20.71;50.13;100632.59;5001234;28;2199;-74
2023/11/16 09:35:51;;;;;;;;;;;;;;;20.88;49.70;100639.75;5004343;28;1722;-75
2023/11/16 09:38:19;;;;;;;;;;;;;;;20.84;49.79;100633.81;5034755;28;2199;-77
2023/11/16 09:40:47;;;;;;;;;;;;;;;20.73;50.03;100635.56;5005898;28;1639;-75
2023/11/16 09:43:17;;;;;;;;;;;;;;;20.74;50.34;100642.06;5035316;28;1988;-73
2023/11/16 09:45:50;;;;;;;;;;;;;;;20.71;50.46;100639.09;5006268;28;1765;-74
2023/11/16 09:48:20;;;;;;;;;;;;;;;20.68;50.26;100631.78;4999423;28;2182;-73
2023/11/16 09:50:48;;;;;;;;;;;;;;;20.71;50.58;100639.09;5004500;28;2168;-76
2023/11/16 09:53:22;;;;;;;;;;;;;;;20.75;50.52;100637.75;5004312;28;2065;-76
2023/11/16 09:55:50;;;;;;;;;;;;;;;20.76;50.58;100645.00;5005744;28;2140;-76
2023/11/16 09:58:21;;;;;;;;;;;;;;;20.76;51.25;100639.25;5010180;28;2478;-74
2023/11/16 10:00:49;;;;;;;;;;;;;;;20.77;51.81;100629.94;5008581;28;6328;-74
2023/11/16 10:03:16;;;;;;;;;;;;;;;20.73;51.81;100624.06;5014400;28;2267;-73
2023/11/16 10:05:44;;;;;;;;;;;;;;;20.73;51.87;100626.94;5030612;28;1861;-73
2023/11/16 10:08:17;;;;;;;;;;;;;;;20.74;51.66;100619.75;5001454;28;1833;-74
2023/11/16 10:10:54;;;;;;;;;;;;;;;20.75;51.76;100612.59;5002033;28;1638;-74
2023/11/16 10:13:21;;;;;;;;;;;;;;;20.75;51.85;100598.22;5003125;28;1616;-74
2023/11/16 10:15:51;;;;;;;;;;;;;;;20.75;51.99;100603.25;5000714;28;1619;-75
2023/11/16 10:18:17;;;;;;;;;;;;;;;20.77;51.69;100603.31;5003970;28;2379;-74
2023/11/16 10:20:44;;;;;;;;;;;;;;;20.77;51.84;100583.19;5002687;28;2206;-75
2023/11/16 10:23:12;;;;;;;;;;;;;;;20.79;51.82;100584.00;5031978;28;2199;-74
2023/11/16 10:25:38;;;;;;;;;;;;;;;20.91;51.25;100590.25;5002251;28;2170;-71
2023/11/16 10:28:19;;;;;;;;;;;;;;;21.22;51.38;100574.16;5001511;28;2304;-74
2023/11/16 10:30:50;;;;;;;;;;;;;;;21.53;50.45;100583.97;5029886;28;6234;-75
2023/11/16 10:33:17;;;;;;;;;;;;;;;21.61;50.24;100584.28;4987177;28;2189;-77
2023/11/16 10:35:46;;;;;;;;;;;;;;;21.45;49.78;100569.28;5015889;28;1713;-78
2023/11/16 10:38:17;;;;;;;;;;;;;;;21.26;50.83;100574.31;4972121;28;1733;-78
2023/11/16 10:40:51;;;;;;;;;;;;;;;21.22;50.99;100564.78;4985075;28;2140;-74
2023/11/16 10:43:25;;;;;;;;;;;;;;;21.51;50.92;100570.25;4986397;28;1920;-73
2023/11/16 10:45:57;;;;;;;;;;;;;;;20.01;48.25;100566.38;4988336;28;2050;-73
2023/11/16 10:48:23;;;;;;;;;;;;;;;20.21;47.08;100580.16;4980264;28;2128;-71
2023/11/16 10:50:50;;;;;;;;;;;;;;;20.20;47.99;100572.91;4984835;28;1594;-73
2023/11/16 10:53:17;;;;;;;;;;;;;;;20.56;47.05;100579.47;4983458;28;2268;-79
2023/11/16 10:55:44;;;;;;;;;;;;;;;20.79;45.80;100577.50;4983092;28;2374;-78
2023/11/16 10:58:11;;;;;;;;;;;;;;;20.82;45.43;100571.19;4985966;28;2153;-76
2023/11/16 11:00:39;;;;;;;;;;;;;;;20.86;45.12;100579.97;4984058;28;6245;-76
2023/11/16 11:03:06;;;;;;;;;;;;;;;20.92;44.95;100568.69;4988849;28;2140;-77
2023/11/16 11:05:37;;;;;;;;;;;;;;;20.90;44.66;100585.88;5010997;28;2317;-76
2023/11/16 11:08:07;;;;;;;;;;;;;;;20.75;44.72;100589.59;5015206;28;2043;-77
2023/11/16 11:10:37;;;;;;;;;;;;;;;20.67;44.68;100583.50;4986491;28;2081;-78
2023/11/16 11:13:06;;;;;;;;;;;;;;;20.66;44.23;100579.91;4987875;28;2023;-76
2023/11/16 11:15:37;;;;;;;;;;;;;;;20.76;44.65;100593.97;5016118;28;2272;-75
2023/11/16 11:18:04;;;;;;;;;;;;;;;20.88;44.22;100597.31;4989844;28;2058;-78
2023/11/16 11:20:32;;;;;;;;;;;;;;;21.00;44.05;100593.44;4988673;28;2294;-76
2023/11/16 11:23:09;;;;;;;;;;;;;;;21.03;44.33;100607.28;5021381;28;2161;-80
2023/11/16 11:25:39;;;;;;;;;;;;;;;21.02;44.37;100599.28;4989225;28;2093;-76
2023/11/16 11:28:06;;;;;;;;;;;;;;;21.08;44.12;100591.63;5009958;28;2308;-74
2023/11/16 11:30:35;;;;;;;;;;;;;;;21.17;44.18;100598.44;4986815;28;6172;-73
2023/11/16 11:33:05;;;;;;;;;;;;;;;20.92;45.27;100600.34;4987096;28;2671;-76
2023/11/16 11:35:37;;;;;;;;;;;;;;;20.83;45.51;100589.91;5016440;28;2018;-78
2023/11/16 11:38:17;;;;;;;;;;;;;;;20.78;45.84;100564.53;4989383;28;1943;-76
2023/11/16 11:40:47;;;;;;;;;;;;;;;20.79;45.77;100581.13;5007762;28;2271;-77
2023/11/16 11:43:20;;;;;;;;;;;;;;;20.82;46.09;100587.69;4990918;28;2086;-73
2023/11/16 11:45:46;;;;;;;;;;;;;;;20.83;46.28;100581.28;5016279;28;2073;-75
2023/11/16 11:48:13;;;;;;;;;;;;;;;20.85;45.77;100589.28;4988454;28;2019;-75
2023/11/16 11:50:39;;;;;;;;;;;;;;;20.84;45.89;100571.25;4989393;28;2141;-75
2023/11/16 11:53:09;;;;;;;;;;;;;;;20.81;46.00;100572.56;4987974;28;2153;-73
2023/11/16 11:55:35;;;;;;;;;;;;;;;20.80;46.63;100588.38;5017192;28;2178;-75
2023/11/16 11:58:09;;;;;;;;;;;;;;;20.80;46.38;100582.63;4985748;28;2134;-78
2023/11/16 12:00:50;;;;;;;;;;;;;;;20.81;46.54;100586.97;4993003;28;6040;-77
2023/11/16 12:03:27;;;;;;;;;;;;;;;20.84;46.51;100594.28;5006526;28;1946;-74
2023/11/16 12:06:08;;;;;;;;;;;;;;;20.83;46.61;100581.28;5006085;28;2115;-81
2023/11/16 12:08:46;;;;;;;;;;;;;;;20.76;46.50;100573.06;5007507;28;2044;-80
2023/11/16 12:11:26;;;;;;;;;;;;;;;20.69;46.57;100583.59;5007532;28;2207;-81
2023/11/16 12:13:55;;;;;;;;;;;;;;;20.83;47.36;100587.03;5005435;28;1950;-77
2023/11/16 12:16:26;;;;;;;;;;;;;;;20.98;46.88;100578.97;5037474;28;2025;-77
2023/11/16 12:18:54;;;;;;;;;;;;;;;21.02;46.45;100579.13;5008083;28;2119;-79
2023/11/16 12:21:22;;;;;;;;;;;;;;;20.97;46.53;100589.00;5038067;28;2164;-79
2023/11/16 12:23:53;;;;;;;;;;;;;;;20.92;46.87;100585.22;5005690;28;2321;-78
2023/11/16 12:26:29;;;;;;;;;;;;;;;20.80;46.64;100588.38;5003388;28;2159;-79
2023/11/16 12:28:56;;;;;;;;;;;;;;;20.70;47.45;100585.06;5004010;28;2291;-78
2023/11/16 12:31:26;;;;;;;;;;;;;;;20.59;47.66;100574.53;5020420;28;6205;-78
2023/11/16 12:33:53;;;;;;;;;;;;;;;20.53;47.51;100568.53;4983206;28;2004;-78
2023/11/16 12:36:20;;;;;;;;;;;;;;;20.54;47.54;100570.00;4984688;28;2057;-79
2023/11/16 12:38:50;;;;;;;;;;;;;;;20.50;47.51;100562.69;4983824;28;2157;-79
2023/11/16 12:41:16;;;;;;;;;;;;;;;20.49;47.72;100566.94;4984541;28;2251;-79
2023/11/16 12:43:43;;;;;;;;;;;;;;;20.45;47.59;100572.53;4982403;28;2232;-79
2023/11/16 12:46:11;;;;;;;;;;;;;;;20.43;47.73;100569.59;4984680;28;2007;-79
2023/11/16 12:48:38;;;;;;;;;;;;;;;20.45;47.72;100572.53;4986097;28;2018;-80
2023/11/16 12:51:06;;;;;;;;;;;;;;;20.43;47.99;100575.34;4983521;28;2145;-79
2023/11/16 12:53:37;;;;;;;;;;;;;;;20.44;47.66;100571.06;5015592;28;2044;-78